createdAt,value
2022-11-30T00:01:24.399Z,83.10
2022-11-30T00:03:57.958Z,90.83
2022-11-30T00:06:26.268Z,83.20
2022-11-30T00:08:55.509Z,87.70
2022-11-30T00:11:25.703Z,82.07
2022-11-30T00:13:53.204Z,90.63
2022-11-30T00:16:20.706Z,85.97
2022-11-30T00:18:47.800Z,83.83
2022-11-30T00:21:15.968Z,84.10
2022-11-30T00:23:46.011Z,83.70
2022-11-30T00:26:18.069Z,89.67
2022-11-30T00:28:46.010Z,88.67
2022-11-30T00:31:17.820Z,87.07
2022-11-30T00:33:45.382Z,85.43
2022-11-30T00:36:17.378Z,88.83
2022-11-30T00:38:45.581Z,87.13
2022-11-30T00:41:14.009Z,88.33
2022-11-30T00:43:41.518Z,90.47
2022-11-30T00:46:09.455Z,92.73
2022-11-30T00:48:38.876Z,91.70
2022-11-30T00:51:08.365Z,86.40
2022-11-30T00:53:35.423Z,84.73
2022-11-30T00:56:02.391Z,89.77
2022-11-30T00:58:29.392Z,87.30
2022-11-30T01:00:56.537Z,89.73
2022-11-30T01:03:23.542Z,85.67
2022-11-30T01:05:50.548Z,85.43
2022-11-30T01:08:17.863Z,83.77
2022-11-30T01:10:45.007Z,90.90
2022-11-30T01:13:13.094Z,93.77
2022-11-30T01:15:43.965Z,86.10
2022-11-30T01:18:12.214Z,93.43
2022-11-30T01:20:43.144Z,95.27
2022-11-30T01:23:11.112Z,90.77
2022-11-30T01:25:38.301Z,95.23
2022-11-30T01:28:05.785Z,92.40
2022-11-30T01:30:32.819Z,92.97
2022-11-30T01:33:05.604Z,90.50
2022-11-30T01:35:32.597Z,91.70
2022-11-30T01:37:59.620Z,89.30
2022-11-30T01:40:26.795Z,89.27
2022-11-30T01:42:54.398Z,95.20
2022-11-30T01:45:21.516Z,86.67
2022-11-30T01:47:54.231Z,90.63
2022-11-30T01:50:33.118Z,86.90
2022-11-30T01:53:01.686Z,88.00
2022-11-30T01:55:46.444Z,88.47
2022-11-30T01:58:24.034Z,89.43
2022-11-30T02:00:51.133Z,95.43
2022-11-30T02:03:40.191Z,99.27
2022-11-30T02:06:08.319Z,90.90
2022-11-30T02:08:35.696Z,82.70
2022-11-30T02:11:18.712Z,93.30
2022-11-30T02:14:26.125Z,94.77
2022-11-30T02:17:33.200Z,92.43
2022-11-30T02:20:55.287Z,93.37
2022-11-30T02:24:06.657Z,91.40
2022-11-30T02:27:10.750Z,91.13
2022-11-30T02:30:11.498Z,92.27
2022-11-30T02:32:56.508Z,91.67
2022-11-30T02:35:30.311Z,89.87
2022-11-30T02:38:03.882Z,84.93
2022-11-30T02:40:31.818Z,86.63
2022-11-30T02:43:05.252Z,87.53
2022-11-30T02:45:44.407Z,95.37
2022-11-30T02:48:20.703Z,86.63
2022-11-30T02:51:07.765Z,94.17
2022-11-30T02:53:38.024Z,84.03
2022-11-30T02:56:05.414Z,88.57
2022-11-30T02:58:35.593Z,91.00
2022-11-30T03:01:02.600Z,90.03
2022-11-30T03:03:29.952Z,90.17
2022-11-30T03:05:57.318Z,93.13
2022-11-30T03:08:32.993Z,89.23
2022-11-30T03:11:05.063Z,87.63
2022-11-30T03:13:37.303Z,93.30
2022-11-30T03:16:13.392Z,88.70
2022-11-30T03:18:41.502Z,89.77
2022-11-30T03:21:11.754Z,89.33
2022-11-30T03:23:41.306Z,86.10
2022-11-30T03:26:09.507Z,98.10
2022-11-30T03:28:37.270Z,86.33
2022-11-30T03:31:06.182Z,92.97
2022-11-30T03:33:33.231Z,92.87
2022-11-30T03:36:10.880Z,93.40
2022-11-30T03:38:38.349Z,95.43
2022-11-30T03:41:16.236Z,93.67
2022-11-30T03:43:45.710Z,93.93
2022-11-30T03:46:13.057Z,92.80
2022-11-30T03:48:43.383Z,88.47
2022-11-30T03:51:12.648Z,94.37
2022-11-30T03:53:40.907Z,92.80
2022-11-30T03:56:12.856Z,97.17
2022-11-30T03:58:40.439Z,93.47
2022-11-30T04:01:10.992Z,94.23
2022-11-30T04:03:39.468Z,99.23
2022-11-30T04:06:09.791Z,93.00
2022-11-30T04:08:38.523Z,89.03
2022-11-30T04:11:06.324Z,97.33
2022-11-30T04:13:36.552Z,90.47
2022-11-30T04:16:04.388Z,92.90
2022-11-30T04:18:33.333Z,91.07
2022-11-30T04:21:01.866Z,102.23
2022-11-30T04:23:37.909Z,96.60
2022-11-30T04:26:10.636Z,98.17
2022-11-30T04:28:37.619Z,96.60
2022-11-30T04:31:07.997Z,95.03
2022-11-30T04:33:38.003Z,96.80
2022-11-30T04:36:07.820Z,94.97
2022-11-30T04:38:36.679Z,92.20
2022-11-30T04:41:08.863Z,98.77
2022-11-30T04:43:36.315Z,100.80
2022-11-30T04:46:05.637Z,94.13
2022-11-30T04:48:32.978Z,96.33
2022-11-30T04:51:06.867Z,86.30
2022-11-30T04:53:37.325Z,92.53
2022-11-30T04:56:11.023Z,90.90
2022-11-30T04:58:39.373Z,92.30
2022-11-30T05:01:07.366Z,94.63
2022-11-30T05:03:34.959Z,99.70
2022-11-30T05:06:03.242Z,96.87
2022-11-30T05:08:30.310Z,98.43
2022-11-30T05:10:57.326Z,96.50
2022-11-30T05:13:26.283Z,89.73
2022-11-30T05:15:54.127Z,98.90
2022-11-30T05:18:21.750Z,96.97
2022-11-30T05:20:50.845Z,99.30
2022-11-30T05:23:19.433Z,98.33
2022-11-30T05:25:47.253Z,96.93
2022-11-30T05:28:14.799Z,99.47
2022-11-30T05:30:43.234Z,103.27
2022-11-30T05:33:10.797Z,100.73
2022-11-30T05:35:40.545Z,97.67
2022-11-30T05:38:07.651Z,98.27
2022-11-30T05:40:34.977Z,96.63
2022-11-30T05:43:04.288Z,87.70
2022-11-30T05:45:31.742Z,96.67
2022-11-30T05:47:58.833Z,96.10
2022-11-30T05:50:25.922Z,89.37
2022-11-30T05:52:56.850Z,98.10
2022-11-30T05:55:25.074Z,92.50
2022-11-30T05:57:52.620Z,100.80
2022-11-30T06:00:21.768Z,96.23
2022-11-30T06:02:48.931Z,92.03
2022-11-30T06:05:16.264Z,94.17
2022-11-30T06:07:43.464Z,91.13
2022-11-30T06:10:11.720Z,99.23
2022-11-30T06:12:38.786Z,84.50
2022-11-30T06:15:06.523Z,91.83
2022-11-30T06:17:33.607Z,88.63
2022-11-30T06:20:00.620Z,89.47
2022-11-30T06:22:27.601Z,98.83
2022-11-30T06:24:54.597Z,103.80
2022-11-30T06:27:21.589Z,94.57
2022-11-30T06:29:48.589Z,89.97
2022-11-30T06:32:15.690Z,80.77
2022-11-30T06:34:42.722Z,99.33
2022-11-30T06:37:09.805Z,91.33
2022-11-30T06:40:04.699Z,92.17
2022-11-30T06:42:26.036Z,92.23
2022-11-30T06:44:52.976Z,82.60
2022-11-30T06:47:20.084Z,86.23
2022-11-30T06:49:47.438Z,92.57
2022-11-30T06:52:14.486Z,93.07
2022-11-30T06:54:41.711Z,91.57
2022-11-30T06:57:08.732Z,84.30
2022-11-30T06:59:42.273Z,83.82
2022-11-30T07:02:18.319Z,91.17
2022-11-30T07:04:46.888Z,92.83
2022-11-30T07:07:14.345Z,87.77
2022-11-30T07:09:41.775Z,82.40
2022-11-30T07:12:09.141Z,90.60
2022-11-30T07:14:36.447Z,91.07
2022-11-30T07:17:06.377Z,83.00
2022-11-30T07:19:36.305Z,81.67
2022-11-30T07:22:03.450Z,88.30
2022-11-30T07:24:49.232Z,82.97
2022-11-30T07:27:16.406Z,86.70
2022-11-30T07:29:43.506Z,91.90
2022-11-30T07:32:10.503Z,94.90
2022-11-30T07:34:37.521Z,88.13
2022-11-30T07:37:04.496Z,88.40
2022-11-30T07:39:31.497Z,89.80
2022-11-30T07:41:58.754Z,89.47
2022-11-30T07:44:25.752Z,84.00
2022-11-30T07:46:52.740Z,87.03
2022-11-30T07:49:19.826Z,81.40
2022-11-30T07:51:47.095Z,79.70
2022-11-30T07:54:14.365Z,81.37
2022-11-30T07:56:41.327Z,94.50
2022-11-30T07:59:09.527Z,81.43
2022-11-30T08:01:37.218Z,79.67
2022-11-30T08:04:04.574Z,84.77
2022-11-30T08:06:32.355Z,81.97
2022-11-30T08:09:03.131Z,81.67
2022-11-30T08:11:36.313Z,88.30
2022-11-30T08:14:04.420Z,83.73
2022-11-30T08:16:39.314Z,84.13
2022-11-30T08:19:06.614Z,89.27
2022-11-30T08:21:36.762Z,82.53
2022-11-30T08:24:04.122Z,87.20
2022-11-30T08:26:33.938Z,78.23
2022-11-30T08:29:01.982Z,83.23
2022-11-30T08:31:35.206Z,86.20
2022-11-30T08:34:11.120Z,90.90
2022-11-30T08:36:40.330Z,85.47
2022-11-30T08:39:11.083Z,84.50
2022-11-30T08:41:39.159Z,75.67
2022-11-30T08:44:07.202Z,79.43
2022-11-30T08:46:50.902Z,82.87
2022-11-30T08:49:22.076Z,91.13
2022-11-30T08:52:16.355Z,79.37
2022-11-30T08:54:48.199Z,80.47
2022-11-30T08:57:21.681Z,82.73
2022-11-30T08:59:49.170Z,82.97
2022-11-30T09:02:19.568Z,81.23
2022-11-30T09:04:49.060Z,80.37
2022-11-30T09:07:16.559Z,81.87
2022-11-30T09:09:43.517Z,79.30
2022-11-30T09:12:10.483Z,85.63
2022-11-30T09:14:37.469Z,86.67
2022-11-30T09:17:05.075Z,79.43
2022-11-30T09:19:32.075Z,77.70
2022-11-30T09:21:59.126Z,79.70
2022-11-30T09:24:26.227Z,80.40
2022-11-30T09:26:57.194Z,81.60
2022-11-30T09:29:24.387Z,78.57
2022-11-30T09:31:51.419Z,82.43
2022-11-30T09:34:18.473Z,84.07
2022-11-30T09:36:45.618Z,80.47
2022-11-30T09:39:13.029Z,82.40
2022-11-30T09:42:19.867Z,80.80
2022-11-30T09:45:16.543Z,79.97
2022-11-30T09:48:50.397Z,82.17
2022-11-30T09:51:47.670Z,74.70
2022-11-30T09:54:35.415Z,80.87
2022-11-30T09:57:48.619Z,71.73
2022-11-30T10:00:24.511Z,81.63
2022-11-30T10:02:57.116Z,81.80
2022-11-30T10:06:06.274Z,76.13
2022-11-30T10:09:32.886Z,77.50
2022-11-30T10:12:21.349Z,80.17
2022-11-30T10:15:11.570Z,77.63
2022-11-30T10:18:03.947Z,88.20
2022-11-30T10:20:39.474Z,80.23
2022-11-30T10:24:06.077Z,85.23
2022-11-30T10:26:38.177Z,80.17
2022-11-30T10:29:45.530Z,80.77
2022-11-30T10:32:29.164Z,74.27
2022-11-30T10:35:40.449Z,81.87
2022-11-30T10:38:54.456Z,77.70
2022-11-30T10:41:57.420Z,76.30
2022-11-30T10:44:44.084Z,77.17
2022-11-30T10:47:21.546Z,80.20
2022-11-30T10:49:53.092Z,77.00
2022-11-30T10:52:53.679Z,81.30
2022-11-30T10:55:36.251Z,75.30
2022-11-30T10:58:38.929Z,76.07
2022-11-30T11:01:11.533Z,71.23
2022-11-30T11:03:38.811Z,79.87
2022-11-30T11:06:07.373Z,76.60
2022-11-30T11:08:35.282Z,79.43
2022-11-30T11:11:02.687Z,83.07
2022-11-30T11:13:43.689Z,80.43
2022-11-30T11:16:13.449Z,76.73
2022-11-30T11:18:57.187Z,79.87
2022-11-30T11:21:24.840Z,71.87
2022-11-30T11:23:56.583Z,74.17
2022-11-30T11:26:29.801Z,77.83
2022-11-30T11:29:02.324Z,77.17
2022-11-30T11:31:46.433Z,77.87
2022-11-30T11:34:32.900Z,89.73
2022-11-30T11:37:29.032Z,90.93
2022-11-30T11:40:17.173Z,96.00
2022-11-30T11:42:54.263Z,88.37
2022-11-30T11:45:32.208Z,89.13
2022-11-30T11:48:08.140Z,89.40
2022-11-30T11:53:57.072Z,88.70
2022-11-30T11:56:37.747Z,96.37
2022-11-30T11:59:10.704Z,104.17
2022-11-30T12:02:29.214Z,124.33
2022-11-30T12:05:05.581Z,95.40
2022-11-30T12:08:43.398Z,99.80
2022-11-30T12:11:30.369Z,97.27
2022-11-30T12:13:57.494Z,94.60
2022-11-30T12:16:41.233Z,101.13
2022-11-30T12:19:41.383Z,126.07
2022-11-30T12:23:17.308Z,102.27
2022-11-30T12:27:08.437Z,118.20
2022-11-30T12:30:02.253Z,105.93
2022-11-30T12:33:25.352Z,106.00
2022-11-30T12:36:19.959Z,105.97
2022-11-30T12:39:18.000Z,101.60
2022-11-30T12:41:54.874Z,111.43
2022-11-30T12:45:04.045Z,111.77
2022-11-30T12:48:23.911Z,107.20
2022-11-30T12:51:30.083Z,109.73
2022-11-30T12:54:38.457Z,110.37
2022-11-30T12:57:21.052Z,112.43
2022-11-30T13:00:24.074Z,113.93
2022-11-30T13:03:30.230Z,104.17
2022-11-30T13:06:01.971Z,115.10
2022-11-30T13:08:43.705Z,115.00
2022-11-30T13:11:41.020Z,114.70
2022-11-30T13:14:22.664Z,115.27
2022-11-30T13:17:06.251Z,130.10
2022-11-30T13:20:04.600Z,108.73
2022-11-30T13:23:10.310Z,117.07
2022-11-30T13:26:14.017Z,114.17
2022-11-30T13:29:22.840Z,111.70
2022-11-30T13:32:56.844Z,108.83
2022-11-30T13:35:29.552Z,102.60
2022-11-30T13:38:37.917Z,106.13
2022-11-30T13:41:08.725Z,107.43
2022-11-30T13:43:48.203Z,107.43
2022-11-30T13:46:23.751Z,117.07
2022-11-30T13:49:33.906Z,113.40
2022-11-30T13:52:22.237Z,109.80
2022-11-30T13:54:57.181Z,117.57
2022-11-30T13:57:30.400Z,109.23
2022-11-30T14:00:22.412Z,117.83
2022-11-30T14:02:54.395Z,109.67
2022-11-30T14:05:39.983Z,110.37
2022-11-30T14:08:09.945Z,103.07
2022-11-30T14:10:43.141Z,104.20
2022-11-30T14:13:10.401Z,93.13
2022-11-30T14:15:40.949Z,106.07
2022-11-30T14:18:08.081Z,106.97
2022-11-30T14:20:53.770Z,113.43
2022-11-30T14:23:43.633Z,119.60
2022-11-30T14:26:48.146Z,120.33
2022-11-30T14:29:31.270Z,114.70
2022-11-30T14:32:23.815Z,125.93
2022-11-30T14:35:00.935Z,120.27
2022-11-30T14:38:00.407Z,125.17
2022-11-30T14:40:30.918Z,117.37
2022-11-30T14:43:02.162Z,126.67
2022-11-30T14:45:33.890Z,121.70
2022-11-30T14:48:16.853Z,123.50
2022-11-30T14:51:01.388Z,118.80
2022-11-30T14:53:54.923Z,132.17
2022-11-30T14:56:39.536Z,118.20
2022-11-30T14:59:33.644Z,127.00
2022-11-30T15:02:14.032Z,120.50
2022-11-30T15:04:41.159Z,118.43
2022-11-30T15:07:15.357Z,120.83
2022-11-30T15:09:47.457Z,123.10
2022-11-30T15:12:24.715Z,129.47
2022-11-30T15:15:17.851Z,119.53
2022-11-30T15:17:50.173Z,116.77
2022-11-30T15:20:38.945Z,120.63
2022-11-30T15:23:12.775Z,119.07
2022-11-30T15:25:50.680Z,114.30
2022-11-30T15:28:37.472Z,122.17
2022-11-30T15:31:13.216Z,124.27
2022-11-30T15:33:51.135Z,114.23
2022-11-30T15:36:32.440Z,108.37
2022-11-30T15:39:08.467Z,112.70
2022-11-30T15:41:36.552Z,112.50
2022-11-30T15:44:03.739Z,110.70
2022-11-30T15:46:46.415Z,125.27
2022-11-30T15:49:28.453Z,124.67
2022-11-30T15:52:12.915Z,106.37
2022-11-30T15:54:57.220Z,133.20
2022-11-30T15:57:27.662Z,124.00
2022-11-30T16:00:22.185Z,114.30
2022-11-30T16:03:06.490Z,131.37
2022-11-30T16:05:33.923Z,120.97
2022-11-30T16:08:03.342Z,118.63
2022-11-30T16:10:40.032Z,126.23
2022-11-30T16:13:07.465Z,139.33
2022-11-30T16:15:36.743Z,122.17
2022-11-30T16:18:28.283Z,114.33
2022-11-30T16:21:01.430Z,142.30
2022-11-30T16:23:29.209Z,123.60
2022-11-30T16:25:56.545Z,117.80
2022-11-30T16:28:23.964Z,115.83
2022-11-30T16:30:51.690Z,112.57
2022-11-30T16:33:22.736Z,115.53
2022-11-30T16:35:57.865Z,121.77
2022-11-30T16:38:26.462Z,114.70
2022-11-30T16:40:55.785Z,127.17
2022-11-30T16:43:25.640Z,128.53
2022-11-30T16:45:52.750Z,109.30
2022-11-30T16:48:20.145Z,125.53
2022-11-30T16:50:47.320Z,108.73
2022-11-30T16:53:18.633Z,125.60
2022-11-30T16:55:45.616Z,131.33
2022-11-30T16:58:14.482Z,142.87
2022-11-30T17:00:41.688Z,144.80
2022-11-30T17:03:35.837Z,136.77
2022-11-30T17:06:03.342Z,160.80
2022-11-30T17:08:30.441Z,152.67
2022-11-30T17:10:57.517Z,153.57
2022-11-30T17:13:24.549Z,139.77
2022-11-30T17:15:51.663Z,144.43
2022-11-30T17:18:18.772Z,130.00
2022-11-30T17:20:45.936Z,133.40
2022-11-30T17:23:13.049Z,142.87
2022-11-30T17:25:40.616Z,157.00
2022-11-30T17:28:08.032Z,148.17
2022-11-30T17:30:36.198Z,134.37
2022-11-30T17:33:03.311Z,139.63
2022-11-30T17:35:30.740Z,149.63
2022-11-30T17:37:57.776Z,145.47
2022-11-30T17:40:24.849Z,121.97
2022-11-30T17:42:52.174Z,129.17
2022-11-30T17:45:19.215Z,127.97
2022-11-30T17:47:46.300Z,116.60
2022-11-30T17:50:14.644Z,126.17
2022-11-30T17:52:41.722Z,118.53
2022-11-30T17:55:09.602Z,118.77
2022-11-30T17:57:38.586Z,128.57
2022-11-30T18:00:07.973Z,151.10
2022-11-30T18:02:35.038Z,145.10
2022-11-30T18:05:02.097Z,118.77
2022-11-30T18:07:29.342Z,126.40
2022-11-30T18:10:01.751Z,122.77
2022-11-30T18:12:28.972Z,117.50
2022-11-30T18:14:56.308Z,125.53
2022-11-30T18:17:23.649Z,119.43
2022-11-30T18:19:51.313Z,125.67
2022-11-30T18:22:18.324Z,125.23
2022-11-30T18:24:45.802Z,119.43
2022-11-30T18:27:12.943Z,137.50
2022-11-30T18:29:40.036Z,120.70
2022-11-30T18:32:08.048Z,120.27
2022-11-30T18:34:35.459Z,128.30
2022-11-30T18:37:02.588Z,112.33
2022-11-30T18:39:29.701Z,136.37
2022-11-30T18:41:56.842Z,126.57
2022-11-30T18:44:23.941Z,126.50
2022-11-30T18:46:50.921Z,108.57
2022-11-30T18:49:20.757Z,125.93
2022-11-30T18:51:47.818Z,116.47
2022-11-30T18:54:14.900Z,112.53
2022-11-30T18:56:42.050Z,114.93
2022-11-30T18:59:15.877Z,116.10
2022-11-30T19:01:43.408Z,111.43
2022-11-30T19:04:11.480Z,120.03
2022-11-30T19:06:41.690Z,119.33
2022-11-30T19:09:14.178Z,102.03
2022-11-30T19:11:43.003Z,93.03
2022-11-30T19:14:14.488Z,99.83
2022-11-30T19:16:42.077Z,101.10
2022-11-30T19:19:14.024Z,106.17
2022-11-30T19:21:45.214Z,104.40
2022-11-30T19:24:12.217Z,105.17
2022-11-30T19:26:40.140Z,96.13
2022-11-30T19:29:07.690Z,122.83
2022-11-30T19:31:34.735Z,101.90
2022-11-30T19:34:05.569Z,101.53
2022-11-30T19:36:36.322Z,106.20
2022-11-30T19:39:03.921Z,87.13
2022-11-30T19:41:31.076Z,101.37
2022-11-30T19:44:04.612Z,95.93
2022-11-30T19:46:32.930Z,98.93
2022-11-30T19:49:01.472Z,108.97
2022-11-30T19:51:31.132Z,105.33
2022-11-30T19:54:00.961Z,108.07
2022-11-30T19:56:31.919Z,108.87
2022-11-30T19:59:04.551Z,102.13
2022-11-30T20:01:33.829Z,92.13
2022-11-30T20:04:01.019Z,99.47
2022-11-30T20:06:37.472Z,90.73
2022-11-30T20:09:06.948Z,93.73
2022-11-30T20:11:35.317Z,94.13
2022-11-30T20:14:02.462Z,109.10
2022-11-30T20:16:29.922Z,105.47
2022-11-30T20:19:01.436Z,108.97
2022-11-30T20:21:34.325Z,110.57
2022-11-30T20:24:10.355Z,111.47
2022-11-30T20:26:42.424Z,117.83
2022-11-30T20:29:16.199Z,105.50
2022-11-30T20:31:46.732Z,114.33
2022-11-30T20:34:13.704Z,116.77
2022-11-30T20:36:40.819Z,117.87
2022-11-30T20:39:08.030Z,108.20
2022-11-30T20:41:35.168Z,123.50
2022-11-30T20:44:02.165Z,109.43
2022-11-30T20:46:33.575Z,111.87
2022-11-30T20:49:03.382Z,106.47
2022-11-30T20:51:34.680Z,107.00
2022-11-30T20:54:06.858Z,97.07
2022-11-30T20:56:37.178Z,111.53
2022-11-30T20:59:23.544Z,102.67
2022-11-30T21:01:50.720Z,110.53
2022-11-30T21:04:17.743Z,104.97
2022-11-30T21:06:47.913Z,102.97
2022-11-30T21:09:18.701Z,101.60
2022-11-30T21:11:47.594Z,121.80
2022-11-30T21:14:15.566Z,111.00
2022-11-30T21:16:42.682Z,96.50
2022-11-30T21:19:11.691Z,96.10
2022-11-30T21:21:38.778Z,103.83
2022-11-30T21:24:09.189Z,94.93
2022-11-30T21:26:40.945Z,97.70
2022-11-30T21:29:18.141Z,100.63
2022-11-30T21:31:45.565Z,82.60
2022-11-30T21:34:13.347Z,90.83
2022-11-30T21:36:40.485Z,98.23
2022-11-30T21:39:08.500Z,95.17
2022-11-30T21:41:40.167Z,106.00
2022-11-30T21:44:12.189Z,92.17
2022-11-30T21:46:39.871Z,98.30
2022-11-30T21:49:07.524Z,99.23
2022-11-30T21:51:34.518Z,104.63
2022-11-30T21:54:06.995Z,113.50
2022-11-30T21:56:38.231Z,112.30
2022-11-30T21:59:08.765Z,106.27
2022-11-30T22:01:40.050Z,110.40
2022-11-30T22:04:10.125Z,101.20
2022-11-30T22:06:39.953Z,106.37
2022-11-30T22:09:14.482Z,111.73
2022-11-30T22:11:45.007Z,108.00
2022-11-30T22:14:16.773Z,99.47
2022-11-30T22:16:44.844Z,101.10
2022-11-30T22:19:11.863Z,111.13
2022-11-30T22:21:38.919Z,99.97
2022-11-30T22:24:11.992Z,112.50
2022-11-30T22:26:42.119Z,103.57
2022-11-30T22:29:22.321Z,103.60
2022-11-30T22:31:53.554Z,109.03
2022-11-30T22:34:21.287Z,112.07
2022-11-30T22:36:48.446Z,116.47
2022-11-30T22:39:21.859Z,112.47
2022-11-30T22:41:55.183Z,104.40
2022-11-30T22:44:22.962Z,113.00
2022-11-30T22:46:50.048Z,96.47
2022-11-30T22:49:21.615Z,85.47
2022-11-30T22:51:49.911Z,102.67
2022-11-30T22:54:17.715Z,103.23
2022-11-30T22:56:46.335Z,92.87
2022-11-30T22:59:14.836Z,108.80
2022-11-30T23:01:48.493Z,109.77
2022-11-30T23:04:22.836Z,110.70
2022-11-30T23:06:50.785Z,101.57
2022-11-30T23:09:23.104Z,102.90
2022-11-30T23:11:51.466Z,104.87
2022-11-30T23:14:18.838Z,112.70
2022-11-30T23:16:46.329Z,105.43
2022-11-30T23:19:14.742Z,100.93
2022-11-30T23:21:46.722Z,106.20
2022-11-30T23:24:23.748Z,89.53
2022-11-30T23:26:50.869Z,99.93
2022-11-30T23:29:18.654Z,89.97
2022-11-30T23:31:46.923Z,109.63
2022-11-30T23:34:21.482Z,99.37
2022-11-30T23:36:50.044Z,99.43
2022-11-30T23:39:19.647Z,102.33
2022-11-30T23:41:46.976Z,104.70
2022-11-30T23:44:14.329Z,117.03
2022-11-30T23:46:41.391Z,116.10
2022-11-30T23:49:08.537Z,94.23
2022-11-30T23:51:35.590Z,108.47
2022-11-30T23:54:03.002Z,108.10
2022-11-30T23:56:30.047Z,95.17
2022-11-30T23:58:57.038Z,99.23
